• Join FlightAware (Why Join?)
  • Login
  • US Flag 
09:44PM EDT


 

Airport Tracker/Info


-or-


 

Live Flight TrackerFlight Track Log ✈ ASH3726 ✈ 27-Jun-2013 ✈ KIND - KIAD

Flight Track Log - Related Links

Times and Time Zones

All times are in EDT time to prevent confusion due to time zone crossing. See the ASH3726 flight status page for this flight to view local times or setup timezone preferences in your user account.

Time Position Orientation Groundspeed Altitude Reporting Facility
EDT Latitude Longitude Course Direction KTS MPH feet Rate Location/Type
03:24PM 39.7000 -86.3000 79° East 158 182 1,400  Level Indianapolis TRACON
03:25PM 39.6500 -86.3167 194° South 214 246 2,700 1,560 Climbing Indianapolis TRACON
03:26PM 39.6361 -86.2631 109° East 213 245 4,000 1,980 Climbing Indianapolis Center
03:27PM 39.7782 -85.8028 79° East  Level FlightAware Approximate
03:27PM 39.6492 -86.1694 80° East 269 310 6,300  Level Indianapolis Center
03:28PM 39.8041 -85.6420 78° East  Level FlightAware Approximate
03:28PM 39.6736 -86.0719 72° East 288 331 9,000  Level Indianapolis Center
03:29PM 39.8289 -85.4809 79° East  Level FlightAware Approximate
03:29PM 39.7061 -85.9475 71° East 307 353 10,800  Level Indianapolis Center
03:30PM 39.7378 -85.8231 72° East 362 417 12,600 1,740 Climbing Indianapolis Center
03:31PM 39.7700 -85.6967 72° East 371 427 14,500 1,740 Climbing Indianapolis Center
03:32PM 39.8033 -85.5650 72° East 383 441 16,300 1,500 Climbing Indianapolis Center
03:33PM 39.8378 -85.4269 72° East 400 460 17,700 1,500 Climbing Indianapolis Center
03:34PM 39.8733 -85.2861 72° East 409 471 19,400 1,560 Climbing Indianapolis Center
03:35PM 39.8908 -85.0994 83° East 437 503 20,900 1,440 Climbing Indianapolis Center
03:36PM 39.8992 -84.9403 86° East 441 507 22,400 1,260 Climbing Indianapolis Center
03:37PM 39.9072 -84.7828 86° East 450 518 23,600 1,080 Climbing Indianapolis Center
03:38PM 39.9161 -84.6158 86° East 457 526 24,700 1,200 Climbing Indianapolis Center
03:39PM 39.9256 -84.4186 86° East 462 532 26,100 1,020 Climbing Indianapolis Center
03:41PM 39.9403 -84.0736 87° East 476 548 27,900 900 Climbing Indianapolis Center
03:42PM 39.9467 -83.8950 87° East 486 559 28,900 840 Climbing Indianapolis Center
03:43PM 39.9536 -83.7156 87° East 490 564 29,700 720 Climbing Indianapolis Center
03:44PM 39.9600 -83.5292 87° East 499 574 30,400 660 Climbing Indianapolis Center
03:45PM 39.9672 -83.3369 87° East 510 587 31,100 1,020 Climbing Indianapolis Center
03:46PM 39.9711 -83.1528 88° East 502 578 32,600 900 Climbing Indianapolis Center
03:47PM 39.9767 -82.9722 88° East 495 570 33,000 180 Climbing Indianapolis Center
03:48PM 39.9814 -82.7856 88° East 507 583 33,000  Level Indianapolis Center
03:49PM 39.9875 -82.5683 88° East 510 587 33,000  Level Indianapolis Center
03:50PM 39.9917 -82.3808 88° East 513 590 33,000  Level Indianapolis Center
03:51PM 39.9950 -82.1928 89° East 513 590 33,000  Level Indianapolis Center
03:52PM 39.9997 -82.0061 88° East 512 589 33,000  Level Indianapolis Center
03:54PM 40.0028 -81.8200 89° East 512 589 33,000  Level Indianapolis Center
03:55PM 40.0061 -81.6119 89° East 513 590 33,000  Level Indianapolis Center
03:56PM 40.0092 -81.4272 89° East 509 586 33,000  Level Indianapolis Center
03:57PM 39.9908 -81.2419 97° East 512 589 33,000  Level Indianapolis Center
03:58PM 39.9447 -81.0775 110° East 515 593 33,000  Level Indianapolis Center
03:59PM 39.8958 -80.9033 110° East 513 590 33,000  Level Indianapolis Center
04:00PM 39.8364 -80.6939 110° East 513 590 33,000  Level Indianapolis Center
04:00PM 39.8192 -80.6236 108° East 511 588 33,000  Level Cleveland Center
04:01PM 39.7689 -80.4508 111° Southeast 511 588 33,000 -720 Level Cleveland Center
04:03PM 39.6856 -80.1719 111° Southeast 513 590 31,200 -1,260 Descending Indianapolis Center
04:04PM 39.6447 -80.0222 109° East 502 578 29,900 -1,560 Descending Washington Center
04:05PM 39.5947 -79.8519 111° Southeast 502 578 28,300 -1,440 Descending Washington Center
04:06PM 39.5406 -79.6686 111° Southeast 497 572 27,000 -1,200 Descending Washington Center
04:07PM 39.4978 -79.5100 109° East 486 559 26,000 -1,620 Descending Washington Center
04:08PM 39.4675 -79.3525 104° East 469 540 23,800 -2,040 Descending Washington Center
04:09PM 39.4425 -79.2142 103° East 453 521 22,000 -1,920 Descending Washington Center
04:10PM 39.4156 -79.0650 103° East 435 501 20,000 -2,100 Descending Washington Center
04:11PM 39.3903 -78.9269 103° East 411 473 17,800 -2,100 Descending Washington Center
04:12PM 39.3650 -78.7914 104° East 396 456 15,800 -1,920 Descending Washington Center
04:13PM 39.3433 -78.6592 102° East 383 441 14,100 -1,020 Descending Washington Center
04:14PM 39.3194 -78.5292 103° East 377 434 13,800 -900 Descending Washington Center
04:15PM 39.2933 -78.3994 105° East 377 434 12,300 -1,440 Descending Washington Center
04:16PM 39.2458 -78.2906 119° Southeast 364 419 11,000 -900 Descending Washington Center
04:17PM 39.1978 -78.1975 124° Southeast 334 384 10,600 -960 Descending Washington Center
04:18PM 39.1497 -78.1075 125° Southeast 321 369 9,100 -840 Descending Washington Center
04:19PM 39.1014 -78.0203 126° Southeast 307 353 9,000 -660 Descending Washington Center
04:20PM 39.0533 -77.9306 125° Southeast 302 348 7,800 -1,020 Descending Washington Center
04:21PM 39.0050 -77.8328 122° Southeast 302 348 7,000 -900 Descending Washington Center
04:22PM 38.9650 -77.7408 119° Southeast 291 335 6,000 -540 Descending Washington Center
04:23PM 38.9586 -77.6392 95° East 286 329 6,000  Level Washington Center
04:24PM 39.0500 -77.5667 32° Northeast 296 341 6,000  Level Potomac TRACON
04:25PM 39.1333 -77.5667 360° North 273 314 6,000 -600 Level Potomac TRACON
04:26PM 39.1667 -77.5167 49° Northeast 260 299 4,800 -1,500 Descending Potomac TRACON
04:27PM 39.1500 -77.4500 108° East 240 276 3,100 -900 Descending Potomac TRACON
04:28PM 39.1000 -77.4500 180° South 189 217 3,000 -120 Descending Potomac TRACON